createdAt,value
2018-11-20T00:02:51.340Z,76.67
2018-11-20T00:05:56.086Z,74.00
2018-11-20T00:08:56.570Z,75.10
2018-11-20T00:11:34.453Z,78.17
2018-11-20T00:14:28.773Z,79.90
2018-11-20T00:17:16.858Z,63.40
2018-11-20T00:20:00.536Z,74.58
2018-11-20T00:22:49.125Z,65.63
2018-11-20T00:25:43.739Z,68.92
2018-11-20T00:28:32.600Z,69.27
2018-11-20T00:31:09.413Z,63.20
2018-11-20T00:34:15.606Z,65.53
2018-11-20T00:37:13.959Z,63.47
2018-11-20T00:40:21.005Z,71.35
2018-11-20T00:43:12.027Z,63.52
2018-11-20T00:46:00.032Z,66.95
2018-11-20T00:49:23.748Z,64.13
2018-11-20T00:52:14.615Z,63.77
2018-11-20T00:54:52.059Z,62.43
2018-11-20T00:57:42.583Z,65.65
2018-11-20T01:00:42.668Z,63.80
2018-11-20T01:03:29.688Z,70.60
2018-11-20T01:06:26.229Z,61.30
2018-11-20T01:09:22.706Z,66.47
2018-11-20T01:12:09.029Z,64.47
2018-11-20T01:14:59.961Z,74.17
2018-11-20T01:18:05.671Z,65.83
2018-11-20T01:21:05.773Z,62.93
2018-11-20T01:23:54.184Z,64.55
2018-11-20T01:26:56.733Z,72.17
2018-11-20T01:29:47.984Z,63.10
2018-11-20T01:32:36.305Z,60.40
2018-11-20T01:35:22.891Z,71.50
2018-11-20T01:38:09.529Z,67.90
2018-11-20T01:40:59.804Z,71.87
2018-11-20T01:43:59.852Z,65.50
2018-11-20T01:46:50.454Z,58.67
2018-11-20T01:49:40.645Z,59.63
2018-11-20T01:52:28.332Z,63.50
2018-11-20T01:55:16.436Z,64.50
2018-11-20T01:58:15.944Z,62.70
2018-11-20T02:01:02.440Z,53.77
2018-11-20T02:03:53.474Z,61.37
2018-11-20T02:06:46.705Z,62.80
2018-11-20T02:09:43.444Z,60.95
2018-11-20T02:12:30.838Z,57.23
2018-11-20T02:15:24.351Z,58.77
2018-11-20T02:18:25.932Z,58.67
2018-11-20T02:21:13.521Z,56.97
2018-11-20T02:23:59.677Z,62.93
2018-11-20T02:26:49.266Z,62.93
2018-11-20T02:29:37.799Z,60.70
2018-11-20T02:32:28.156Z,62.33
2018-11-20T02:35:21.544Z,63.97
2018-11-20T02:38:21.723Z,60.40
2018-11-20T02:41:18.195Z,57.53
2018-11-20T02:44:09.536Z,65.10
2018-11-20T02:47:00.825Z,57.33
2018-11-20T02:49:58.200Z,58.67
2018-11-20T02:52:46.237Z,58.60
2018-11-20T02:55:38.479Z,59.66
2018-11-20T02:58:25.032Z,63.43
2018-11-20T03:01:09.637Z,56.40
2018-11-20T03:03:57.965Z,56.50
2018-11-20T03:06:38.036Z,60.50
2018-11-20T03:09:26.583Z,52.62
2018-11-20T03:12:12.807Z,55.87
2018-11-20T03:14:59.225Z,56.28
2018-11-20T03:17:45.679Z,56.03
2018-11-20T03:20:44.109Z,51.63
2018-11-20T03:23:38.000Z,51.80
2018-11-20T03:26:21.733Z,51.20
2018-11-20T03:30:11.924Z,46.73
2018-11-20T03:33:08.542Z,50.85
2018-11-20T03:36:02.248Z,56.87
2018-11-20T03:38:52.317Z,51.90
2018-11-20T03:41:42.751Z,48.17
2018-11-20T03:44:31.349Z,48.20
2018-11-20T03:47:17.821Z,55.80
2018-11-20T03:50:06.291Z,53.40
2018-11-20T03:52:54.810Z,47.10
2018-11-20T03:55:46.164Z,55.90
2018-11-20T03:58:34.270Z,52.80
2018-11-20T04:01:20.462Z,47.73
2018-11-20T04:04:08.057Z,51.50
2018-11-20T04:06:58.630Z,47.17
2018-11-20T04:09:49.614Z,49.93
2018-11-20T04:12:40.933Z,47.33
2018-11-20T04:15:31.405Z,44.55
2018-11-20T04:18:15.140Z,46.97
2018-11-20T04:21:01.455Z,44.90
2018-11-20T04:24:01.323Z,44.97
2018-11-20T04:26:58.811Z,49.42
2018-11-20T04:29:45.963Z,45.03
2018-11-20T04:32:32.130Z,42.95
2018-11-20T04:35:21.012Z,42.97
2018-11-20T04:38:05.095Z,46.37
2018-11-20T04:40:55.399Z,46.13
2018-11-20T04:43:46.425Z,44.03
2018-11-20T04:46:34.393Z,42.65
2018-11-20T04:49:20.922Z,46.50
2018-11-20T04:52:06.573Z,41.95
2018-11-20T04:55:06.247Z,42.13
2018-11-20T04:57:53.874Z,42.37
2018-11-20T05:00:44.623Z,42.38
2018-11-20T05:03:44.675Z,41.63
2018-11-20T05:06:31.380Z,37.57
2018-11-20T05:09:19.887Z,39.10
2018-11-20T05:11:59.977Z,41.98
2018-11-20T05:14:47.683Z,38.70
2018-11-20T05:17:29.133Z,36.68
2018-11-20T05:20:26.615Z,39.83
2018-11-20T05:23:23.935Z,35.47
2018-11-20T05:26:01.884Z,38.20
2018-11-20T05:28:48.216Z,38.05
2018-11-20T05:31:54.743Z,30.97
2018-11-20T05:35:00.531Z,32.53
2018-11-20T05:37:47.034Z,34.70
2018-11-20T05:40:34.143Z,34.90
2018-11-20T05:43:27.365Z,27.93
2018-11-20T05:46:06.677Z,34.53
2018-11-20T05:48:53.138Z,28.23
2018-11-20T05:51:52.878Z,29.93
2018-11-20T05:54:39.089Z,31.57
2018-11-20T05:57:25.275Z,27.13
2018-11-20T06:00:20.977Z,25.00
2018-11-20T06:03:14.514Z,29.73
2018-11-20T06:06:05.161Z,30.50
2018-11-20T06:08:55.696Z,24.25
2018-11-20T06:11:52.347Z,25.00
2018-11-20T06:14:38.790Z,23.70
2018-11-20T06:17:35.804Z,21.10
2018-11-20T06:20:24.634Z,18.77
2018-11-20T06:23:10.748Z,22.80
2018-11-20T06:25:52.287Z,22.87
2018-11-20T06:28:41.690Z,21.82
2018-11-20T06:31:32.529Z,20.33
2018-11-20T06:34:19.149Z,19.93
2018-11-20T06:37:15.407Z,21.17
2018-11-20T06:40:09.145Z,22.23
2018-11-20T06:43:02.535Z,15.60
2018-11-20T06:45:54.140Z,18.70
2018-11-20T06:48:49.141Z,21.63
2018-11-20T06:51:42.810Z,17.53
2018-11-20T06:54:45.643Z,20.70
2018-11-20T06:57:34.423Z,16.40
2018-11-20T07:00:20.076Z,20.00
2018-11-20T07:03:17.923Z,17.37
2018-11-20T07:06:04.522Z,24.40
2018-11-20T07:08:50.741Z,19.40
2018-11-20T07:11:44.486Z,22.63
2018-11-20T07:14:33.997Z,22.13
2018-11-20T07:17:28.277Z,22.00
2018-11-20T07:20:16.934Z,25.17
2018-11-20T07:23:04.673Z,22.10
2018-11-20T07:25:51.564Z,25.72
2018-11-20T07:28:54.552Z,24.63
2018-11-20T07:31:57.356Z,20.97
2018-11-20T07:34:43.401Z,24.47
2018-11-20T07:37:32.403Z,24.57
2018-11-20T07:40:17.568Z,21.10
2018-11-20T07:42:58.439Z,17.73
2018-11-20T07:45:44.930Z,25.55
2018-11-20T07:48:31.173Z,24.67
2018-11-20T07:51:17.341Z,23.67
2018-11-20T07:54:08.559Z,23.97
2018-11-20T07:56:54.845Z,20.00
2018-11-20T07:59:41.458Z,18.20
2018-11-20T08:02:35.040Z,25.43
2018-11-20T08:05:14.867Z,21.85
2018-11-20T08:08:09.790Z,19.43
2018-11-20T08:10:53.809Z,22.50
2018-11-20T08:13:41.775Z,22.80
2018-11-20T08:16:26.291Z,22.67
2018-11-20T08:19:07.412Z,18.93
2018-11-20T08:21:53.996Z,20.47
2018-11-20T08:24:44.392Z,23.20
2018-11-20T08:27:24.781Z,15.77
2018-11-20T08:30:11.047Z,18.20
2018-11-20T08:32:59.701Z,18.40
2018-11-20T08:35:47.458Z,19.92
2018-11-20T08:38:56.487Z,16.40
2018-11-20T08:41:43.404Z,15.93
2018-11-20T08:44:50.224Z,16.60
2018-11-20T08:47:41.076Z,14.87
2018-11-20T08:50:27.267Z,14.70
2018-11-20T08:53:14.868Z,15.50
2018-11-20T08:56:05.569Z,14.23
2018-11-20T08:58:54.414Z,16.97
2018-11-20T09:01:55.276Z,13.58
2018-11-20T09:04:45.573Z,13.50
2018-11-20T09:07:40.730Z,15.40
2018-11-20T09:10:27.003Z,14.10
2018-11-20T09:13:13.273Z,14.70
2018-11-20T09:16:05.274Z,15.30
2018-11-20T09:19:02.851Z,16.20
2018-11-20T09:21:50.838Z,15.40
2018-11-20T09:24:41.398Z,13.70
2018-11-20T09:27:35.392Z,15.00
2018-11-20T09:30:25.878Z,14.80
2018-11-20T09:33:06.565Z,19.52
2018-11-20T09:35:53.181Z,13.13
2018-11-20T09:38:43.728Z,12.60
2018-11-20T09:41:40.618Z,15.00
2018-11-20T09:44:28.965Z,14.00
2018-11-20T09:47:25.506Z,14.63
2018-11-20T09:50:12.246Z,14.20
2018-11-20T09:52:55.674Z,13.43
2018-11-20T09:55:43.383Z,15.50
2018-11-20T09:58:34.005Z,12.63
2018-11-20T10:01:21.985Z,11.97
2018-11-20T10:03:59.831Z,14.33
2018-11-20T10:06:46.583Z,13.95
2018-11-20T10:09:44.460Z,17.73
2018-11-20T10:12:44.428Z,15.07
2018-11-20T10:15:35.535Z,17.30
2018-11-20T10:18:24.059Z,13.57
2018-11-20T10:21:05.831Z,14.33
2018-11-20T10:23:53.426Z,17.35
2018-11-20T10:26:50.551Z,16.73
2018-11-20T10:29:45.893Z,18.60
2018-11-20T10:32:33.955Z,16.37
2018-11-20T10:35:23.667Z,15.88
2018-11-20T10:38:27.624Z,16.57
2018-11-20T10:41:29.326Z,17.57
2018-11-20T10:44:23.832Z,13.55
2018-11-20T10:47:08.128Z,15.87
2018-11-20T10:49:54.650Z,15.07
2018-11-20T10:52:54.451Z,21.70
2018-11-20T10:55:53.660Z,17.23
2018-11-20T10:58:41.145Z,15.15
2018-11-20T11:01:41.517Z,15.07
2018-11-20T11:04:29.859Z,15.73
2018-11-20T11:07:35.246Z,14.75
2018-11-20T11:10:14.540Z,17.20
2018-11-20T11:13:02.481Z,15.00
2018-11-20T11:15:55.948Z,16.17
2018-11-20T11:18:52.926Z,17.40
2018-11-20T11:21:59.090Z,16.66
2018-11-20T11:24:47.562Z,15.17
2018-11-20T11:27:34.107Z,13.60
2018-11-20T11:30:19.247Z,14.80
2018-11-20T11:33:01.987Z,13.20
2018-11-20T11:35:50.278Z,15.30
2018-11-20T11:38:36.812Z,15.60
2018-11-20T11:41:23.545Z,15.50
2018-11-20T11:44:17.592Z,16.57
2018-11-20T11:47:15.879Z,16.40
2018-11-20T11:50:02.935Z,14.63
2018-11-20T11:52:43.365Z,17.98
2018-11-20T11:55:29.677Z,17.45
2018-11-20T11:58:30.036Z,17.80
2018-11-20T12:01:13.654Z,14.80
2018-11-20T12:03:49.282Z,14.37
2018-11-20T12:06:35.568Z,15.60
2018-11-20T12:09:24.223Z,14.70
2018-11-20T12:12:11.254Z,16.13
2018-11-20T12:15:04.849Z,16.70
2018-11-20T12:17:59.948Z,13.53
2018-11-20T12:20:46.486Z,19.30
2018-11-20T12:23:47.109Z,20.95
2018-11-20T12:26:35.236Z,13.83
2018-11-20T12:29:21.850Z,14.43
2018-11-20T12:32:19.449Z,12.93
2018-11-20T12:35:06.264Z,13.33
2018-11-20T12:38:05.706Z,15.10
2018-11-20T12:40:52.270Z,13.70
2018-11-20T12:43:43.039Z,16.48
2018-11-20T12:46:25.929Z,16.83
2018-11-20T12:49:13.612Z,16.37
2018-11-20T12:52:01.273Z,16.40
2018-11-20T12:54:46.719Z,13.97
2018-11-20T12:57:37.948Z,16.00
2018-11-20T13:00:37.314Z,15.28
2018-11-20T13:03:37.840Z,15.77
2018-11-20T13:06:23.929Z,15.67
2018-11-20T13:09:11.552Z,13.95
2018-11-20T13:11:57.909Z,18.60
2018-11-20T13:15:04.155Z,18.45
2018-11-20T13:18:11.025Z,17.90
2018-11-20T13:21:13.579Z,14.97
2018-11-20T13:24:00.036Z,13.23
2018-11-20T13:26:56.925Z,16.47
2018-11-20T13:29:53.299Z,17.50
2018-11-20T13:32:43.976Z,12.80
2018-11-20T13:35:44.107Z,15.95
2018-11-20T13:38:31.285Z,16.33
2018-11-20T13:41:46.848Z,16.60
2018-11-20T13:44:33.680Z,15.30
2018-11-20T13:47:11.878Z,24.20
2018-11-20T13:49:53.041Z,13.83
2018-11-20T13:52:52.782Z,15.90
2018-11-20T13:55:38.762Z,15.28
2018-11-20T13:58:25.629Z,15.40
2018-11-20T14:01:16.406Z,16.27
2018-11-20T14:03:58.981Z,18.13
2018-11-20T14:06:43.927Z,16.48
2018-11-20T14:09:47.934Z,16.03
2018-11-20T14:12:39.917Z,17.33
2018-11-20T14:15:31.219Z,15.80
2018-11-20T14:18:33.332Z,17.07
2018-11-20T14:21:31.000Z,17.27
2018-11-20T14:24:18.583Z,15.07
2018-11-20T14:27:00.661Z,19.00
2018-11-20T14:29:47.806Z,17.50
2018-11-20T14:32:52.399Z,15.72
2018-11-20T14:35:44.983Z,21.70
2018-11-20T14:38:32.657Z,16.35
2018-11-20T14:41:19.119Z,17.97
2018-11-20T14:44:05.858Z,17.50
2018-11-20T14:46:52.145Z,18.30
2018-11-20T14:49:41.024Z,17.75
2018-11-20T14:52:36.416Z,18.43
2018-11-20T14:55:40.111Z,38.02
2018-11-20T14:58:26.601Z,13.70
2018-11-20T15:01:17.006Z,18.33
2018-11-20T15:04:03.562Z,19.57
2018-11-20T15:06:50.302Z,17.40
2018-11-20T15:09:50.210Z,19.40
2018-11-20T15:12:36.602Z,19.80
2018-11-20T15:15:27.212Z,19.43
2018-11-20T15:18:20.974Z,22.90
2018-11-20T15:21:07.281Z,25.35
2018-11-20T15:23:54.693Z,23.10
2018-11-20T15:26:38.488Z,25.17
2018-11-20T15:29:15.803Z,22.33
2018-11-20T15:32:09.311Z,22.70
2018-11-20T15:35:02.627Z,26.12
2018-11-20T15:38:05.536Z,23.60
2018-11-20T15:40:53.882Z,29.75
2018-11-20T15:43:50.077Z,27.55
2018-11-20T15:46:36.341Z,26.33
2018-11-20T15:49:23.622Z,31.77
2018-11-20T15:52:01.165Z,26.87
2018-11-20T15:54:52.260Z,27.70
2018-11-20T15:57:39.779Z,24.87
2018-11-20T16:00:40.140Z,24.60
2018-11-20T16:03:26.327Z,39.20
2018-11-20T16:06:01.866Z,30.80
2018-11-20T16:08:52.536Z,25.55
2018-11-20T16:11:38.816Z,35.60
2018-11-20T16:14:36.155Z,29.80
2018-11-20T16:17:23.753Z,36.57
2018-11-20T16:20:14.390Z,28.43
2018-11-20T16:23:10.162Z,30.53
2018-11-20T16:26:04.456Z,27.90
2018-11-20T16:29:02.090Z,30.10
2018-11-20T16:31:50.162Z,29.10
2018-11-20T16:34:37.862Z,27.57
2018-11-20T16:37:34.653Z,30.08
2018-11-20T16:40:24.700Z,26.43
2018-11-20T16:43:04.168Z,27.00
2018-11-20T16:45:50.443Z,30.93
2018-11-20T16:48:36.340Z,26.37
2018-11-20T16:51:23.034Z,23.73
2018-11-20T16:54:09.266Z,24.30
2018-11-20T16:56:55.574Z,26.40
2018-11-20T16:59:42.843Z,24.20
2018-11-20T17:02:44.319Z,24.60
2018-11-20T17:05:38.113Z,24.72
2018-11-20T17:08:24.506Z,22.90
2018-11-20T17:11:08.042Z,23.50
2018-11-20T17:14:04.555Z,23.83
2018-11-20T17:16:58.046Z,26.00
2018-11-20T17:19:55.925Z,24.07
2018-11-20T17:22:42.590Z,23.87
2018-11-20T17:25:28.678Z,24.33
2018-11-20T17:28:22.413Z,25.70
2018-11-20T17:31:19.060Z,27.60
2018-11-20T17:34:09.559Z,24.00
2018-11-20T17:37:06.704Z,27.90
2018-11-20T17:40:07.036Z,23.37
2018-11-20T17:43:01.050Z,26.27
2018-11-20T17:46:06.714Z,26.13
2018-11-20T17:49:12.852Z,23.90
2018-11-20T17:52:03.226Z,34.27
2018-11-20T17:54:53.849Z,27.07
2018-11-20T17:57:40.273Z,26.37
2018-11-20T18:00:28.206Z,25.27
2018-11-20T18:03:28.339Z,26.63
2018-11-20T18:06:21.798Z,28.03
2018-11-20T18:09:02.379Z,29.77
2018-11-20T18:11:59.103Z,41.37
2018-11-20T18:14:49.935Z,35.40
2018-11-20T18:17:40.496Z,38.13
2018-11-20T18:20:37.616Z,32.40
2018-11-20T18:23:34.254Z,38.77
2018-11-20T18:26:38.935Z,34.50
2018-11-20T18:29:45.202Z,32.48
2018-11-20T18:32:32.326Z,38.30
2018-11-20T18:35:23.566Z,34.53
2018-11-20T18:38:09.997Z,31.53
2018-11-20T18:40:51.898Z,34.53
2018-11-20T18:43:49.164Z,32.90
2018-11-20T18:46:36.986Z,34.50
2018-11-20T18:49:24.145Z,35.80
2018-11-20T18:52:17.837Z,34.23
2018-11-20T18:55:08.390Z,36.63
2018-11-20T18:57:54.818Z,36.10
2018-11-20T19:00:58.076Z,32.90
2018-11-20T19:03:45.794Z,31.47
2018-11-20T19:06:39.096Z,35.50
2018-11-20T19:09:35.305Z,36.07
2018-11-20T19:12:41.226Z,38.83
2018-11-20T19:15:24.202Z,32.00
2018-11-20T19:18:27.161Z,37.23
2018-11-20T19:21:26.567Z,33.03
2018-11-20T19:24:13.124Z,43.47
2018-11-20T19:26:59.388Z,35.30
2018-11-20T19:29:59.488Z,37.93
2018-11-20T19:32:47.470Z,40.57
2018-11-20T19:35:37.240Z,39.23
2018-11-20T19:38:24.398Z,35.53
2018-11-20T19:41:07.118Z,37.10
2018-11-20T19:43:54.957Z,35.37
2018-11-20T19:46:48.996Z,32.30
2018-11-20T19:49:51.962Z,35.00
2018-11-20T19:52:48.592Z,33.10
2018-11-20T19:55:36.571Z,32.25
2018-11-20T19:58:21.991Z,45.63
2018-11-20T20:01:24.881Z,36.73
2018-11-20T20:04:11.157Z,37.37
2018-11-20T20:06:59.493Z,33.57
2018-11-20T20:09:49.703Z,36.90
2018-11-20T20:12:32.284Z,34.40
2018-11-20T20:15:23.224Z,38.30
2018-11-20T20:18:09.822Z,36.87
2018-11-20T20:21:03.164Z,39.83
2018-11-20T20:23:50.401Z,38.63
2018-11-20T20:26:36.808Z,36.13
2018-11-20T20:29:37.520Z,37.00
2018-11-20T20:32:26.676Z,38.50
2018-11-20T20:35:17.071Z,37.23
2018-11-20T20:38:00.329Z,39.73
2018-11-20T20:40:59.959Z,33.30
2018-11-20T20:43:46.700Z,40.73
2018-11-20T20:46:39.025Z,40.05
2018-11-20T20:49:21.111Z,41.23
2018-11-20T20:52:17.986Z,39.37
2018-11-20T20:55:05.612Z,35.80
2018-11-20T20:58:01.886Z,34.90
2018-11-20T21:00:50.478Z,41.88
2018-11-20T21:03:46.962Z,48.73
2018-11-20T21:06:51.833Z,45.92
2018-11-20T21:09:35.158Z,48.97
2018-11-20T21:12:21.881Z,48.90
2018-11-20T21:15:08.242Z,46.20
2018-11-20T21:18:01.858Z,52.73
2018-11-20T21:21:04.028Z,43.38
2018-11-20T21:23:46.141Z,45.33
2018-11-20T21:26:34.701Z,49.05
2018-11-20T21:29:21.141Z,50.47
2018-11-20T21:32:11.646Z,46.40
2018-11-20T21:34:57.903Z,52.63
2018-11-20T21:37:53.302Z,56.30
2018-11-20T21:40:47.223Z,50.43
2018-11-20T21:43:36.278Z,44.75
2018-11-20T21:46:27.120Z,55.63
2018-11-20T21:49:14.984Z,60.97
2018-11-20T21:52:09.393Z,51.55
2018-11-20T21:54:55.798Z,64.60
2018-11-20T21:57:39.218Z,56.87
2018-11-20T22:00:30.255Z,57.90
2018-11-20T22:03:27.129Z,67.50
2018-11-20T22:06:13.507Z,63.60
2018-11-20T22:08:55.163Z,71.53
2018-11-20T22:12:00.886Z,72.72
2018-11-20T22:14:39.747Z,77.00
2018-11-20T22:17:45.904Z,74.73
2018-11-20T22:20:33.439Z,82.57
2018-11-20T22:23:19.616Z,85.17
2018-11-20T22:25:57.768Z,70.60
2018-11-20T22:28:44.354Z,70.57
2018-11-20T22:31:31.034Z,76.43
2018-11-20T22:34:36.699Z,63.70
2018-11-20T22:37:21.657Z,75.00
2018-11-20T22:40:03.778Z,71.97
2018-11-20T22:42:50.022Z,75.67
2018-11-20T22:45:41.934Z,77.80
2018-11-20T22:48:28.322Z,78.57
2018-11-20T22:51:10.853Z,71.63
2018-11-20T22:53:46.630Z,76.65
2018-11-20T22:56:29.753Z,91.22
2018-11-20T22:59:23.321Z,75.70
2018-11-20T23:02:09.461Z,94.43
2018-11-20T23:05:02.166Z,76.57
2018-11-20T23:07:44.928Z,77.27
2018-11-20T23:10:17.995Z,89.52
2018-11-20T23:12:46.454Z,87.10
2018-11-20T23:15:16.116Z,83.42
2018-11-20T23:17:44.981Z,86.60
2018-11-20T23:20:14.237Z,106.22
2018-11-20T23:22:43.973Z,73.30
2018-11-20T23:25:13.517Z,90.85
2018-11-20T23:27:42.054Z,87.70
2018-11-20T23:30:12.206Z,88.87
2018-11-20T23:32:41.006Z,85.67
2018-11-20T23:35:10.919Z,91.32
2018-11-20T23:37:40.220Z,80.03
2018-11-20T23:40:10.336Z,74.10
2018-11-20T23:42:39.710Z,78.90
2018-11-20T23:45:10.348Z,74.33
2018-11-20T23:47:38.756Z,83.07
2018-11-20T23:50:09.204Z,79.43
2018-11-20T23:52:37.865Z,79.43
2018-11-20T23:55:08.585Z,101.38
2018-11-20T23:57:37.542Z,92.63
